createdAt,value
2023-10-12T00:00:22.850Z,5.00
2023-10-12T00:02:59.408Z,4.90
2023-10-12T00:05:18.418Z,5.00
2023-10-12T00:07:43.972Z,4.90
2023-10-12T00:10:15.221Z,4.70
2023-10-12T00:12:27.962Z,4.70
2023-10-12T00:14:42.661Z,4.90
2023-10-12T00:16:56.164Z,4.40
2023-10-12T00:19:13.264Z,5.30
2023-10-12T00:21:28.701Z,5.00
2023-10-12T00:23:42.983Z,5.20
2023-10-12T00:25:56.008Z,5.30
2023-10-12T00:28:08.970Z,5.10
2023-10-12T00:30:22.153Z,5.00
2023-10-12T00:32:35.323Z,4.80
2023-10-12T00:34:48.865Z,5.10
2023-10-12T00:37:04.279Z,4.90
2023-10-12T00:39:16.962Z,5.00
2023-10-12T00:41:30.847Z,4.70
2023-10-12T00:44:23.848Z,5.20
2023-10-12T00:46:39.982Z,5.00
2023-10-12T00:49:13.858Z,4.80
2023-10-12T00:51:27.344Z,5.00
2023-10-12T00:53:39.998Z,5.20
2023-10-12T00:55:53.131Z,5.60
2023-10-12T00:58:06.927Z,5.70
2023-10-12T01:00:20.181Z,5.80
2023-10-12T01:02:40.946Z,5.40
2023-10-12T01:04:54.736Z,5.70
2023-10-12T01:07:12.471Z,5.30
2023-10-12T01:09:27.309Z,5.20
2023-10-12T01:11:39.999Z,5.10
2023-10-12T01:13:59.833Z,4.80
2023-10-12T01:16:24.541Z,4.90
2023-10-12T01:18:39.584Z,5.00
2023-10-12T01:20:52.282Z,4.90
2023-10-12T01:23:04.968Z,4.80
2023-10-12T01:25:22.846Z,5.10
2023-10-12T01:27:35.679Z,5.10
2023-10-12T01:29:49.556Z,4.90
2023-10-12T01:32:10.836Z,5.10
2023-10-12T01:34:26.169Z,4.90
2023-10-12T01:36:39.169Z,5.20
2023-10-12T01:38:52.718Z,5.00
2023-10-12T01:41:10.861Z,5.50
2023-10-12T01:43:28.546Z,5.30
2023-10-12T01:45:44.991Z,4.80
2023-10-12T01:48:06.608Z,5.10
2023-10-12T01:50:19.275Z,5.10
2023-10-12T01:52:31.959Z,5.00
2023-10-12T01:54:45.556Z,4.80
2023-10-12T01:56:58.217Z,5.00
2023-10-12T01:59:10.920Z,4.90
2023-10-12T02:01:26.023Z,4.90
2023-10-12T02:03:45.129Z,4.80
2023-10-12T02:06:06.027Z,4.80
2023-10-12T02:08:21.829Z,4.70
2023-10-12T02:10:42.690Z,5.10
2023-10-12T02:12:56.793Z,4.70
2023-10-12T02:15:16.124Z,5.10
2023-10-12T02:17:28.850Z,5.00
2023-10-12T02:19:44.249Z,5.10
2023-10-12T02:22:02.563Z,5.10
2023-10-12T02:24:15.966Z,5.40
2023-10-12T02:26:37.418Z,5.60
2023-10-12T02:28:54.670Z,6.00
2023-10-12T02:31:07.463Z,6.30
2023-10-12T02:33:25.304Z,6.50
2023-10-12T02:35:38.312Z,6.70
2023-10-12T02:37:51.561Z,6.70
2023-10-12T02:40:05.384Z,6.50
2023-10-12T02:42:19.075Z,6.50
2023-10-12T02:44:35.428Z,6.90
2023-10-12T02:47:10.689Z,6.40
2023-10-12T02:49:25.446Z,6.30
2023-10-12T02:51:40.224Z,6.80
2023-10-12T02:53:52.958Z,6.70
2023-10-12T02:56:06.441Z,6.60
2023-10-12T02:58:20.638Z,6.20
2023-10-12T03:00:39.851Z,6.40
2023-10-12T03:02:54.647Z,6.10
2023-10-12T03:05:08.604Z,6.40
2023-10-12T03:07:25.218Z,6.30
2023-10-12T03:09:38.513Z,6.20
2023-10-12T03:11:57.378Z,5.90
2023-10-12T03:14:17.786Z,5.70
2023-10-12T03:16:42.426Z,6.00
2023-10-12T03:19:13.959Z,5.60
2023-10-12T03:21:28.899Z,5.30
2023-10-12T03:23:47.368Z,5.30
2023-10-12T03:26:30.893Z,4.90
2023-10-12T03:28:45.413Z,4.70
2023-10-12T03:31:16.382Z,4.80
2023-10-12T03:33:30.029Z,5.00
2023-10-12T03:36:04.026Z,4.60
2023-10-12T03:38:20.098Z,4.50
2023-10-12T03:40:51.910Z,5.00
2023-10-12T03:43:14.159Z,4.60
2023-10-12T03:45:35.551Z,4.70
2023-10-12T03:48:03.793Z,4.80
2023-10-12T03:50:19.700Z,4.50
2023-10-12T03:52:47.411Z,4.50
2023-10-12T03:55:00.003Z,5.00
2023-10-12T03:57:24.128Z,5.10
2023-10-12T04:00:00.069Z,4.80
2023-10-12T04:02:16.485Z,4.50
2023-10-12T04:04:46.704Z,5.10
2023-10-12T04:07:02.310Z,4.70
2023-10-12T04:09:16.478Z,4.80
2023-10-12T04:11:51.664Z,4.90
2023-10-12T04:14:19.536Z,5.00
2023-10-12T04:16:41.572Z,4.50
2023-10-12T04:18:54.951Z,4.70
2023-10-12T04:21:08.618Z,4.50
2023-10-12T04:23:40.093Z,5.00
2023-10-12T04:26:12.692Z,5.00
2023-10-12T04:28:25.360Z,5.10
2023-10-12T04:31:03.746Z,5.40
2023-10-12T04:33:19.207Z,5.50
2023-10-12T04:35:50.207Z,5.90
2023-10-12T04:38:09.991Z,6.40
2023-10-12T04:40:37.977Z,7.00
2023-10-12T04:42:54.590Z,6.90
2023-10-12T04:45:25.040Z,7.20
2023-10-12T04:47:37.859Z,7.70
2023-10-12T04:49:50.522Z,7.60
2023-10-12T04:52:10.215Z,7.60
2023-10-12T04:54:25.737Z,7.20
2023-10-12T04:56:38.362Z,6.80
2023-10-12T04:58:57.881Z,6.80
2023-10-12T05:01:21.279Z,6.40
2023-10-12T05:03:35.627Z,6.20
2023-10-12T05:06:11.993Z,6.00
2023-10-12T05:08:24.621Z,5.60
2023-10-12T05:10:40.604Z,5.80
2023-10-12T05:12:59.228Z,5.80
2023-10-12T05:15:12.948Z,5.70
2023-10-12T05:17:25.906Z,6.50
2023-10-12T05:19:39.449Z,6.40
2023-10-12T05:21:55.349Z,6.20
2023-10-12T05:24:09.980Z,7.20
2023-10-12T05:26:26.922Z,7.30
2023-10-12T05:28:49.146Z,6.90
2023-10-12T05:31:08.158Z,7.40
2023-10-12T05:33:36.321Z,6.30
2023-10-12T05:35:54.005Z,6.00
2023-10-12T05:38:08.180Z,5.80
2023-10-12T05:40:21.892Z,5.50
2023-10-12T05:42:40.646Z,6.60
2023-10-12T05:45:06.514Z,7.10
2023-10-12T05:47:29.557Z,6.90
2023-10-12T05:49:42.737Z,7.40
2023-10-12T05:51:55.973Z,7.50
2023-10-12T05:54:08.984Z,7.00
2023-10-12T05:56:21.701Z,6.80
2023-10-12T05:58:35.601Z,6.00
2023-10-12T06:00:53.535Z,5.80
2023-10-12T06:03:06.757Z,4.90
2023-10-12T06:05:19.369Z,5.10
2023-10-12T06:07:32.037Z,5.00
2023-10-12T06:09:44.814Z,4.70
2023-10-12T06:11:57.625Z,5.10
2023-10-12T06:14:10.763Z,4.30
2023-10-12T06:16:25.256Z,4.80
2023-10-12T06:18:39.018Z,4.80
2023-10-12T06:21:10.979Z,5.00
2023-10-12T06:23:23.626Z,4.80
2023-10-12T06:25:47.454Z,5.00
2023-10-12T06:28:15.394Z,5.20
2023-10-12T06:30:28.195Z,5.30
2023-10-12T06:32:41.016Z,5.30
2023-10-12T06:35:13.371Z,5.30
2023-10-12T06:37:52.025Z,5.10
2023-10-12T06:40:43.306Z,5.00
2023-10-12T06:43:14.829Z,5.20
2023-10-12T06:45:29.194Z,4.80
2023-10-12T06:47:42.825Z,4.90
2023-10-12T06:50:01.245Z,5.00
2023-10-12T06:52:20.171Z,5.40
2023-10-12T06:54:39.204Z,5.20
2023-10-12T06:56:52.759Z,5.50
2023-10-12T06:59:09.720Z,4.90
2023-10-12T07:01:28.806Z,5.60
2023-10-12T07:03:41.814Z,5.60
2023-10-12T07:05:54.512Z,6.50
2023-10-12T07:08:09.740Z,5.40
2023-10-12T07:10:29.433Z,5.80
2023-10-12T07:12:45.486Z,6.80
2023-10-12T07:14:58.228Z,6.70
2023-10-12T07:17:10.847Z,6.90
2023-10-12T07:19:28.568Z,7.00
2023-10-12T07:21:41.258Z,7.60
2023-10-12T07:23:53.908Z,6.90
2023-10-12T07:26:13.771Z,6.40
2023-10-12T07:28:35.345Z,6.10
2023-10-12T07:31:06.845Z,6.30
2023-10-12T07:33:23.447Z,6.50
2023-10-12T07:35:37.532Z,5.90
2023-10-12T07:37:50.241Z,5.90
2023-10-12T07:40:18.642Z,6.00
2023-10-12T07:42:32.735Z,6.40
2023-10-12T07:44:54.918Z,6.50
2023-10-12T07:47:20.102Z,5.90
2023-10-12T07:49:36.102Z,6.20
2023-10-12T07:52:05.588Z,6.10
2023-10-12T07:54:38.208Z,5.80
2023-10-12T07:56:53.991Z,5.70
2023-10-12T07:59:15.233Z,5.90
2023-10-12T08:01:29.197Z,6.10
2023-10-12T08:03:43.238Z,5.90
2023-10-12T08:06:00.278Z,5.80
2023-10-12T08:08:34.609Z,5.50
2023-10-12T08:10:47.228Z,5.90
2023-10-12T08:13:06.156Z,5.90
2023-10-12T08:15:18.812Z,5.70
2023-10-12T08:17:34.807Z,5.70
2023-10-12T08:19:47.964Z,5.80
2023-10-12T08:22:01.679Z,6.00
2023-10-12T08:24:20.540Z,5.70
2023-10-12T08:26:39.362Z,5.70
2023-10-12T08:28:56.769Z,5.40
2023-10-12T08:31:17.098Z,5.70
2023-10-12T08:33:48.603Z,5.50
2023-10-12T08:36:16.314Z,5.80
2023-10-12T08:38:34.707Z,5.20
2023-10-12T08:41:16.385Z,5.40
2023-10-12T08:43:49.937Z,4.80
2023-10-12T08:46:08.075Z,5.90
2023-10-12T08:48:20.875Z,5.10
2023-10-12T08:50:59.493Z,5.10
2023-10-12T08:53:20.021Z,4.90
2023-10-12T08:55:33.213Z,5.00
2023-10-12T08:58:04.462Z,4.70
2023-10-12T09:00:23.398Z,4.90
2023-10-12T09:02:40.258Z,4.70
2023-10-12T09:04:54.660Z,4.70
2023-10-12T09:07:07.426Z,4.80
2023-10-12T09:09:38.760Z,4.60
2023-10-12T09:12:01.008Z,4.50
2023-10-12T09:14:18.510Z,4.80
2023-10-12T09:16:31.675Z,4.60
2023-10-12T09:18:46.658Z,4.80
2023-10-12T09:21:19.098Z,5.00
2023-10-12T09:23:53.871Z,4.50
2023-10-12T09:26:10.279Z,4.90
2023-10-12T09:28:27.284Z,4.70
2023-10-12T09:30:46.154Z,4.80
2023-10-12T09:33:30.145Z,4.70
2023-10-12T09:35:42.829Z,4.40
2023-10-12T09:37:55.673Z,4.70
2023-10-12T09:40:25.257Z,4.40
2023-10-12T09:42:39.412Z,4.50
2023-10-12T09:45:02.657Z,4.50
2023-10-12T09:47:17.042Z,4.00
2023-10-12T09:49:31.418Z,4.40
2023-10-12T09:51:49.041Z,4.50
2023-10-12T09:54:10.664Z,4.40
2023-10-12T09:56:29.445Z,4.60
2023-10-12T09:58:52.549Z,4.20
2023-10-12T10:01:16.693Z,4.40
2023-10-12T10:03:38.825Z,4.60
2023-10-12T10:05:57.166Z,4.20
2023-10-12T10:08:10.053Z,4.50
2023-10-12T10:10:31.852Z,4.60
2023-10-12T10:12:44.687Z,4.70
2023-10-12T10:15:01.203Z,4.60
2023-10-12T10:17:19.864Z,4.70
2023-10-12T10:19:33.707Z,4.70
2023-10-12T10:21:52.071Z,4.70
2023-10-12T10:24:13.532Z,4.90
2023-10-12T10:26:31.711Z,5.00
2023-10-12T10:28:55.830Z,4.70
2023-10-12T10:31:12.696Z,5.20
2023-10-12T10:33:26.176Z,4.60
2023-10-12T10:35:58.798Z,4.80
2023-10-12T10:38:12.400Z,5.50
2023-10-12T10:40:47.406Z,4.90
2023-10-12T10:43:06.541Z,5.50
2023-10-12T10:45:20.485Z,5.30
2023-10-12T10:47:33.349Z,5.30
2023-10-12T10:49:49.942Z,6.20
2023-10-12T10:52:07.753Z,5.60
2023-10-12T10:54:21.194Z,5.40
2023-10-12T10:56:36.442Z,5.40
2023-10-12T10:58:49.796Z,5.90
2023-10-12T11:01:06.911Z,5.40
2023-10-12T11:03:19.843Z,5.20
2023-10-12T11:05:35.458Z,5.60
2023-10-12T11:07:52.259Z,5.30
2023-10-12T11:10:15.312Z,5.40
2023-10-12T11:12:32.935Z,5.60
2023-10-12T11:14:53.648Z,5.70
2023-10-12T11:17:06.606Z,5.70
2023-10-12T11:19:24.889Z,6.30
2023-10-12T11:21:43.504Z,6.20
2023-10-12T11:24:10.799Z,6.10
2023-10-12T11:26:23.562Z,6.50
2023-10-12T11:28:38.538Z,6.10
2023-10-12T11:31:03.190Z,6.00
2023-10-12T11:33:18.108Z,6.40
2023-10-12T11:35:45.506Z,6.10
2023-10-12T11:37:58.897Z,6.10
2023-10-12T11:40:28.347Z,6.00
2023-10-12T11:42:54.378Z,5.60
2023-10-12T11:45:12.689Z,5.50
2023-10-12T11:47:25.455Z,4.90
2023-10-12T11:49:57.695Z,5.60
2023-10-12T11:52:16.441Z,5.60
2023-10-12T11:54:34.031Z,5.80
2023-10-12T11:56:50.850Z,5.90
2023-10-12T11:59:06.613Z,6.70
2023-10-12T12:01:19.831Z,6.50
2023-10-12T12:03:41.110Z,6.40
2023-10-12T12:05:54.226Z,7.00
2023-10-12T12:08:07.622Z,7.40
2023-10-12T12:10:27.465Z,6.10
2023-10-12T12:12:40.288Z,6.40
2023-10-12T12:14:52.956Z,6.50
2023-10-12T12:17:05.757Z,6.20
2023-10-12T12:19:25.272Z,6.20
2023-10-12T12:21:38.764Z,6.10
2023-10-12T12:23:51.749Z,6.80
2023-10-12T12:26:15.326Z,5.80
2023-10-12T12:28:33.280Z,6.00
2023-10-12T12:30:59.969Z,6.40
2023-10-12T12:33:18.846Z,6.70
2023-10-12T12:35:31.918Z,6.40
2023-10-12T12:37:44.510Z,6.70
2023-10-12T12:40:23.057Z,6.90
2023-10-12T12:42:35.636Z,6.70
2023-10-12T12:44:48.240Z,6.80
2023-10-12T12:47:01.046Z,6.60
2023-10-12T12:49:15.010Z,6.30
2023-10-12T12:51:27.770Z,6.70
2023-10-12T12:53:40.617Z,6.90
2023-10-12T12:55:53.267Z,6.70
2023-10-12T12:58:07.240Z,6.90
2023-10-12T13:00:23.184Z,7.10
2023-10-12T13:02:37.194Z,6.70
2023-10-12T13:04:50.878Z,6.90
2023-10-12T13:07:10.033Z,7.40
2023-10-12T13:09:35.530Z,7.70
2023-10-12T13:11:48.575Z,7.70
2023-10-12T13:14:01.329Z,7.40
2023-10-12T13:16:14.169Z,7.00
2023-10-12T13:18:30.607Z,7.10
2023-10-12T13:20:47.728Z,5.90
2023-10-12T13:23:00.641Z,6.10
2023-10-12T13:25:14.993Z,6.70
2023-10-12T13:27:30.529Z,10.60
2023-10-12T13:29:44.519Z,6.00
2023-10-12T13:31:57.408Z,6.20
2023-10-12T13:34:11.768Z,5.90
2023-10-12T13:36:24.572Z,6.50
2023-10-12T13:38:38.508Z,5.80
2023-10-12T13:40:51.519Z,5.90
2023-10-12T13:43:19.576Z,6.40
2023-10-12T13:45:33.232Z,7.00
2023-10-12T13:47:49.449Z,6.90
2023-10-12T13:50:02.115Z,7.70
2023-10-12T13:52:14.869Z,7.70
2023-10-12T13:54:41.722Z,7.60
2023-10-12T13:56:57.387Z,5.90
2023-10-12T13:59:10.310Z,5.90
2023-10-12T14:01:24.859Z,5.20
2023-10-12T14:03:39.798Z,5.40
2023-10-12T14:05:52.681Z,4.90
2023-10-12T14:08:05.464Z,5.20
2023-10-12T14:10:19.910Z,5.10
2023-10-12T14:12:34.216Z,4.70
2023-10-12T14:14:46.875Z,4.80
2023-10-12T14:16:59.657Z,4.60
2023-10-12T14:19:12.527Z,4.40
2023-10-12T14:21:30.707Z,4.50
2023-10-12T14:23:49.244Z,4.10
2023-10-12T14:26:01.829Z,3.80
2023-10-12T14:28:18.396Z,3.40
2023-10-12T14:30:31.104Z,3.80
2023-10-12T14:32:43.796Z,3.50
2023-10-12T14:34:56.460Z,3.40
2023-10-12T14:37:14.729Z,3.30
2023-10-12T14:39:31.149Z,3.30
2023-10-12T14:41:43.904Z,3.00
2023-10-12T14:43:56.935Z,3.20
2023-10-12T14:46:11.816Z,2.80
2023-10-12T14:48:25.114Z,2.50
2023-10-12T14:50:39.246Z,3.50
2023-10-12T14:52:54.905Z,27.30
2023-10-12T14:55:14.381Z,3.40
2023-10-12T14:57:28.251Z,2.80
2023-10-12T14:59:41.576Z,3.00
2023-10-12T15:01:54.346Z,3.30
2023-10-12T15:04:08.661Z,3.30
2023-10-12T15:06:21.791Z,3.30
2023-10-12T15:08:37.484Z,3.40
2023-10-12T15:10:50.426Z,2.90
2023-10-12T15:13:05.183Z,3.10
2023-10-12T15:15:28.152Z,2.90
2023-10-12T15:17:40.842Z,2.50
2023-10-12T15:19:54.247Z,2.60
2023-10-12T15:22:07.661Z,2.80
2023-10-12T15:24:20.557Z,2.70
2023-10-12T15:26:33.964Z,3.00
2023-10-12T15:28:50.455Z,3.20
2023-10-12T15:31:05.219Z,2.70
2023-10-12T15:33:18.059Z,2.60
2023-10-12T15:35:32.028Z,2.60
2023-10-12T15:37:47.446Z,3.50
2023-10-12T15:40:01.251Z,3.60
2023-10-12T15:42:14.127Z,3.40
2023-10-12T15:44:27.838Z,4.00
2023-10-12T15:46:41.372Z,3.60
2023-10-12T15:48:54.163Z,3.70
2023-10-12T15:51:18.767Z,5.90
2023-10-12T15:53:31.534Z,3.20
2023-10-12T15:55:45.832Z,3.40
2023-10-12T15:57:58.588Z,3.20
2023-10-12T16:00:23.679Z,3.50
2023-10-12T16:02:37.347Z,4.00
2023-10-12T16:04:50.369Z,4.50
2023-10-12T16:07:06.944Z,4.70
2023-10-12T16:09:22.033Z,4.50
2023-10-12T16:11:39.605Z,4.10
2023-10-12T16:13:53.506Z,3.80
2023-10-12T16:16:13.382Z,3.80
2023-10-12T16:18:26.526Z,3.80
2023-10-12T16:20:39.139Z,4.40
2023-10-12T16:22:51.936Z,5.80
2023-10-12T16:25:08.359Z,5.60
2023-10-12T16:27:21.171Z,7.00
2023-10-12T16:29:45.048Z,9.80
2023-10-12T16:32:06.312Z,8.70
2023-10-12T16:34:20.116Z,7.50
2023-10-12T16:36:36.887Z,7.00
2023-10-12T16:38:51.995Z,7.00
2023-10-12T16:41:08.830Z,7.60
2023-10-12T16:43:24.874Z,7.40
2023-10-12T16:45:37.616Z,6.80
2023-10-12T16:47:51.248Z,7.40
2023-10-12T16:50:06.002Z,7.40
2023-10-12T16:52:18.704Z,7.30
2023-10-12T16:54:31.562Z,7.70
2023-10-12T16:56:45.542Z,7.10
2023-10-12T16:58:58.401Z,6.50
2023-10-12T17:01:15.110Z,6.70
2023-10-12T17:03:31.153Z,7.00
2023-10-12T17:05:45.917Z,6.80
2023-10-12T17:07:58.963Z,6.90
2023-10-12T17:10:24.676Z,7.10
2023-10-12T17:12:38.948Z,7.30
2023-10-12T17:14:52.760Z,7.60
2023-10-12T17:17:06.065Z,9.40
2023-10-12T17:19:19.151Z,16.40
2023-10-12T17:21:33.410Z,15.30
2023-10-12T17:23:46.592Z,20.70
2023-10-12T17:26:00.050Z,41.50
2023-10-12T17:28:13.124Z,59.40
2023-10-12T17:30:25.780Z,52.70
2023-10-12T17:32:40.089Z,52.20
2023-10-12T17:34:54.768Z,88.30
2023-10-12T17:37:08.199Z,110.10
2023-10-12T17:39:21.683Z,99.40
2023-10-12T17:41:34.493Z,74.10
2023-10-12T17:43:52.764Z,58.70
2023-10-12T17:46:05.483Z,34.80
2023-10-12T17:48:20.636Z,30.30
2023-10-12T17:50:39.307Z,22.60
2023-10-12T17:52:55.510Z,23.60
2023-10-12T17:55:09.430Z,17.90
2023-10-12T17:57:22.286Z,15.70
2023-10-12T17:59:34.934Z,16.40
2023-10-12T18:01:48.628Z,10.20
2023-10-12T18:04:01.944Z,7.70
2023-10-12T18:06:14.866Z,8.70
2023-10-12T18:08:27.446Z,8.90
2023-10-12T18:10:44.197Z,8.50
2023-10-12T18:12:57.284Z,8.30
2023-10-12T18:15:10.541Z,9.30
2023-10-12T18:17:26.505Z,8.40
2023-10-12T18:19:39.890Z,8.30
2023-10-12T18:21:52.936Z,9.20
2023-10-12T18:24:05.948Z,9.40
2023-10-12T18:26:19.813Z,9.50
2023-10-12T18:28:34.050Z,8.80
2023-10-12T18:30:58.314Z,9.20
2023-10-12T18:33:14.532Z,8.50
2023-10-12T18:35:27.208Z,8.10
2023-10-12T18:37:40.478Z,7.50
2023-10-12T18:39:53.568Z,7.80
2023-10-12T18:42:06.520Z,8.00
2023-10-12T18:44:19.257Z,7.80
2023-10-12T18:46:32.246Z,8.00
2023-10-12T18:48:45.411Z,8.80
2023-10-12T18:51:00.121Z,8.00
2023-10-12T18:53:12.715Z,7.70
2023-10-12T18:55:25.341Z,7.40
2023-10-12T18:57:40.770Z,7.60
2023-10-12T18:59:53.711Z,7.20
2023-10-12T19:02:06.500Z,7.80
2023-10-12T19:04:20.605Z,7.90
2023-10-12T19:06:35.291Z,7.90
2023-10-12T19:08:47.984Z,8.10
2023-10-12T19:11:11.295Z,8.50
2023-10-12T19:13:24.807Z,7.60
2023-10-12T19:15:37.852Z,8.00
2023-10-12T19:17:50.494Z,8.30
2023-10-12T19:20:05.032Z,8.30
2023-10-12T19:22:17.738Z,8.70
2023-10-12T19:24:30.674Z,8.60
2023-10-12T19:26:43.541Z,9.00
2023-10-12T19:28:56.326Z,11.00
2023-10-12T19:31:13.689Z,11.70
2023-10-12T19:33:27.148Z,15.30
2023-10-12T19:35:41.936Z,13.60
2023-10-12T19:37:55.444Z,14.10
2023-10-12T19:40:17.213Z,11.30
2023-10-12T19:42:30.119Z,10.40
2023-10-12T19:44:44.439Z,10.50
2023-10-12T19:46:57.319Z,11.60
2023-10-12T19:49:11.883Z,14.70
2023-10-12T19:51:24.729Z,15.90
2023-10-12T19:53:38.202Z,15.60
2023-10-12T19:55:51.156Z,13.60
2023-10-12T19:58:06.809Z,12.20
2023-10-12T20:00:26.999Z,11.20
2023-10-12T20:02:45.204Z,11.30
2023-10-12T20:04:58.067Z,10.40
2023-10-12T20:07:12.183Z,11.60
2023-10-12T20:09:31.200Z,12.30
2023-10-12T20:11:43.959Z,13.40
2023-10-12T20:13:56.946Z,11.70
2023-10-12T20:16:13.015Z,11.00
2023-10-12T20:18:25.849Z,11.70
2023-10-12T20:20:42.115Z,10.70
2023-10-12T20:22:57.150Z,10.50
2023-10-12T20:25:13.153Z,9.70
2023-10-12T20:27:26.059Z,10.70
2023-10-12T20:29:40.949Z,10.70
2023-10-12T20:31:54.094Z,10.10
2023-10-12T20:34:06.962Z,11.10
2023-10-12T20:36:19.525Z,11.40
2023-10-12T20:38:34.185Z,10.50
2023-10-12T20:40:47.868Z,10.30
2023-10-12T20:43:00.654Z,10.20
2023-10-12T20:45:13.505Z,9.90
2023-10-12T20:47:26.386Z,9.90
2023-10-12T20:49:40.674Z,9.80
2023-10-12T20:51:53.508Z,9.90
2023-10-12T20:54:13.692Z,8.70
2023-10-12T20:56:30.095Z,8.50
2023-10-12T20:58:44.148Z,8.20
2023-10-12T21:01:04.451Z,8.90
2023-10-12T21:03:23.651Z,9.10
2023-10-12T21:05:38.120Z,9.20
2023-10-12T21:07:53.329Z,9.50
2023-10-12T21:10:13.497Z,9.10
2023-10-12T21:12:28.284Z,9.10
2023-10-12T21:14:45.008Z,8.30
2023-10-12T21:16:58.036Z,8.20
2023-10-12T21:19:21.735Z,9.70
2023-10-12T21:21:34.771Z,8.40
2023-10-12T21:23:47.520Z,9.30
2023-10-12T21:26:03.684Z,9.70
2023-10-12T21:28:16.923Z,9.40
2023-10-12T21:30:37.696Z,9.70
2023-10-12T21:32:50.707Z,10.00
2023-10-12T21:35:08.659Z,9.90
2023-10-12T21:37:21.525Z,9.60
2023-10-12T21:39:37.163Z,8.90
2023-10-12T21:41:51.995Z,8.90
2023-10-12T21:44:09.033Z,8.50
2023-10-12T21:46:23.083Z,8.30
2023-10-12T21:48:36.021Z,8.30
2023-10-12T21:50:48.687Z,8.30
2023-10-12T21:53:02.153Z,8.50
2023-10-12T21:55:15.943Z,8.10
2023-10-12T21:57:31.165Z,8.60
2023-10-12T21:59:43.855Z,8.20
2023-10-12T22:02:14.744Z,8.40
2023-10-12T22:04:35.579Z,8.50
2023-10-12T22:06:51.768Z,8.50
2023-10-12T22:09:05.875Z,9.10
2023-10-12T22:11:21.712Z,8.70
2023-10-12T22:13:52.824Z,8.30
2023-10-12T22:16:05.700Z,8.20
2023-10-12T22:18:20.328Z,7.50
2023-10-12T22:20:33.108Z,7.50
2023-10-12T22:22:46.864Z,7.70
2023-10-12T22:24:59.508Z,8.00
2023-10-12T22:27:15.062Z,7.50
2023-10-12T22:29:29.034Z,7.90
2023-10-12T22:31:48.340Z,7.30
2023-10-12T22:34:03.810Z,7.00
2023-10-12T22:36:20.971Z,7.50
2023-10-12T22:38:33.982Z,7.80
2023-10-12T22:40:46.574Z,7.50
2023-10-12T22:42:59.209Z,8.00
2023-10-12T22:45:16.754Z,7.80
2023-10-12T22:47:29.698Z,7.00
2023-10-12T22:49:42.352Z,8.10
2023-10-12T22:51:55.048Z,8.20
2023-10-12T22:54:08.209Z,7.70
2023-10-12T22:56:21.634Z,7.90
2023-10-12T22:58:34.264Z,7.60
2023-10-12T23:00:47.108Z,8.00
2023-10-12T23:02:59.843Z,8.10
2023-10-12T23:05:16.119Z,8.10
2023-10-12T23:07:29.034Z,8.80
2023-10-12T23:09:43.196Z,8.40
2023-10-12T23:11:56.520Z,8.00
2023-10-12T23:14:12.619Z,7.80
2023-10-12T23:16:36.232Z,8.10
2023-10-12T23:18:55.297Z,7.90
2023-10-12T23:21:16.024Z,7.70
2023-10-12T23:23:29.101Z,7.90
2023-10-12T23:25:48.404Z,8.40
2023-10-12T23:28:01.156Z,8.70
2023-10-12T23:30:20.020Z,8.00
2023-10-12T23:32:34.016Z,8.80
2023-10-12T23:34:46.800Z,8.60
2023-10-12T23:36:59.805Z,8.90
2023-10-12T23:39:15.700Z,8.50
2023-10-12T23:41:34.969Z,8.10
2023-10-12T23:43:56.312Z,8.30
2023-10-12T23:46:13.246Z,7.70
2023-10-12T23:48:25.984Z,8.30
2023-10-12T23:50:51.408Z,7.80
2023-10-12T23:53:19.069Z,8.10
2023-10-12T23:55:32.173Z,9.00
2023-10-12T23:57:44.867Z,8.50
